createdAt,value
2018-05-09T00:00:58.782Z,6.10
2018-05-09T00:01:58.777Z,6.50
2018-05-09T00:02:58.792Z,8.00
2018-05-09T00:03:58.789Z,8.50
2018-05-09T00:04:58.797Z,7.30
2018-05-09T00:05:58.806Z,7.90
2018-05-09T00:06:58.818Z,7.90
2018-05-09T00:07:58.817Z,6.70
2018-05-09T00:08:58.821Z,6.00
2018-05-09T00:09:58.814Z,6.50
2018-05-09T00:10:58.814Z,6.30
2018-05-09T00:11:58.854Z,7.60
2018-05-09T00:12:58.826Z,6.00
2018-05-09T00:13:58.831Z,8.20
2018-05-09T00:14:58.828Z,5.80
2018-05-09T00:15:58.839Z,7.20
2018-05-09T00:16:58.839Z,5.60
2018-05-09T00:17:58.852Z,5.90
2018-05-09T00:18:58.852Z,5.00
2018-05-09T00:19:58.864Z,7.40
2018-05-09T00:20:58.850Z,6.00
2018-05-09T00:21:58.984Z,5.60
2018-05-09T00:22:58.857Z,5.30
2018-05-09T00:23:58.886Z,5.30
2018-05-09T00:24:58.868Z,6.50
2018-05-09T00:25:58.872Z,7.40
2018-05-09T00:26:58.885Z,6.80
2018-05-09T00:27:58.883Z,5.50
2018-05-09T00:28:58.887Z,7.60
2018-05-09T00:29:58.899Z,6.10
2018-05-09T00:30:58.905Z,4.80
2018-05-09T00:31:58.884Z,6.80
2018-05-09T00:32:58.897Z,6.30
2018-05-09T00:33:58.903Z,7.20
2018-05-09T00:34:58.972Z,6.80
2018-05-09T00:35:58.917Z,5.20
2018-05-09T00:36:58.915Z,6.90
2018-05-09T00:37:58.910Z,5.40
2018-05-09T00:38:58.925Z,7.80
2018-05-09T00:39:58.922Z,5.70
2018-05-09T00:40:58.928Z,8.00
2018-05-09T00:41:58.947Z,6.50
2018-05-09T00:42:58.928Z,6.50
2018-05-09T00:43:58.932Z,9.50
2018-05-09T00:44:58.952Z,10.20
2018-05-09T00:45:58.950Z,7.30
2018-05-09T00:46:58.956Z,6.00
2018-05-09T00:47:58.957Z,7.60
2018-05-09T00:48:58.958Z,7.00
2018-05-09T00:49:58.956Z,5.70
2018-05-09T00:50:58.958Z,9.00
2018-05-09T00:51:58.966Z,9.20
2018-05-09T00:52:58.982Z,5.60
2018-05-09T00:53:58.977Z,8.40
2018-05-09T00:54:58.973Z,6.60
2018-05-09T00:55:58.991Z,7.50
2018-05-09T00:56:58.983Z,7.30
2018-05-09T00:57:58.994Z,7.60
2018-05-09T00:58:59.009Z,8.50
2018-05-09T00:59:59.001Z,6.40
2018-05-09T01:00:58.996Z,7.20
2018-05-09T01:01:59.003Z,5.10
2018-05-09T01:02:59.152Z,6.40
2018-05-09T01:03:59.020Z,6.50
2018-05-09T01:04:59.009Z,9.60
2018-05-09T01:05:59.010Z,5.50
2018-05-09T01:06:59.014Z,5.20
2018-05-09T01:07:59.021Z,6.80
2018-05-09T01:08:59.023Z,7.10
2018-05-09T01:09:59.029Z,5.40
2018-05-09T01:10:59.039Z,5.90
2018-05-09T01:11:59.046Z,5.70
2018-05-09T01:12:59.049Z,6.20
2018-05-09T01:13:59.051Z,5.70
2018-05-09T01:14:59.057Z,7.00
2018-05-09T01:15:59.149Z,5.30
2018-05-09T01:16:59.055Z,7.80
2018-05-09T01:17:59.064Z,5.00
2018-05-09T01:18:59.070Z,9.80
2018-05-09T01:19:59.071Z,7.40
2018-05-09T01:20:59.079Z,10.10
2018-05-09T01:21:59.064Z,7.20
2018-05-09T01:22:59.091Z,5.90
2018-05-09T01:23:59.078Z,5.50
2018-05-09T01:24:59.095Z,5.70
2018-05-09T01:25:59.101Z,6.50
2018-05-09T01:26:59.151Z,5.90
2018-05-09T01:27:59.088Z,7.60
2018-05-09T01:28:59.166Z,6.60
2018-05-09T01:29:59.103Z,6.80
2018-05-09T01:30:59.104Z,6.90
2018-05-09T01:31:59.111Z,7.20
2018-05-09T01:32:59.108Z,6.30
2018-05-09T01:33:59.112Z,8.10
2018-05-09T01:34:59.139Z,7.40
2018-05-09T01:35:59.117Z,5.90
2018-05-09T01:36:59.119Z,5.80
2018-05-09T01:37:59.124Z,5.70
2018-05-09T01:38:59.125Z,7.20
2018-05-09T01:39:59.144Z,6.50
2018-05-09T01:40:59.138Z,7.80
2018-05-09T01:41:59.142Z,7.10
2018-05-09T01:42:59.154Z,5.80
2018-05-09T01:43:59.141Z,6.50
2018-05-09T01:44:59.161Z,8.20
2018-05-09T01:45:59.168Z,6.60
2018-05-09T01:46:59.174Z,7.00
2018-05-09T01:47:59.152Z,6.00
2018-05-09T01:48:59.168Z,7.80
2018-05-09T01:49:59.167Z,6.20
2018-05-09T01:50:59.164Z,7.90
2018-05-09T01:51:59.176Z,9.30
2018-05-09T01:52:59.183Z,8.00
2018-05-09T01:53:59.196Z,8.70
2018-05-09T01:54:59.251Z,9.30
2018-05-09T01:55:59.184Z,7.10
2018-05-09T01:56:59.216Z,6.50
2018-05-09T01:57:59.198Z,7.80
2018-05-09T01:58:59.203Z,7.80
2018-05-09T01:59:59.209Z,7.80
2018-05-09T02:00:59.203Z,6.90
2018-05-09T02:01:59.225Z,7.60
2018-05-09T02:02:59.217Z,8.90
2018-05-09T02:03:59.211Z,8.30
2018-05-09T02:04:59.220Z,7.10
2018-05-09T02:05:59.272Z,8.20
2018-05-09T02:06:59.225Z,8.10
2018-05-09T02:07:59.233Z,8.70
2018-05-09T02:08:59.222Z,7.30
2018-05-09T02:09:59.256Z,9.40
2018-05-09T02:10:59.227Z,7.30
2018-05-09T02:11:59.233Z,7.30
2018-05-09T02:12:59.240Z,8.00
2018-05-09T02:13:59.245Z,8.60
2018-05-09T02:14:59.239Z,7.90
2018-05-09T02:15:59.245Z,7.70
2018-05-09T02:16:59.256Z,7.70
2018-05-09T02:17:59.270Z,8.00
2018-05-09T02:18:59.274Z,7.40
2018-05-09T02:19:59.425Z,9.80
2018-05-09T02:20:59.262Z,7.30
2018-05-09T02:21:59.265Z,9.90
2018-05-09T02:22:59.268Z,7.80
2018-05-09T02:23:59.383Z,7.60
2018-05-09T02:24:59.277Z,9.50
2018-05-09T02:25:59.307Z,7.50
2018-05-09T02:26:59.318Z,8.70
2018-05-09T02:27:59.293Z,8.30
2018-05-09T02:28:59.293Z,8.20
2018-05-09T02:29:59.315Z,9.50
2018-05-09T02:30:59.902Z,8.40
2018-05-09T02:31:59.324Z,7.70
2018-05-09T02:32:59.340Z,7.60
2018-05-09T02:33:59.331Z,9.00
2018-05-09T02:34:59.333Z,8.00
2018-05-09T02:35:59.319Z,8.80
2018-05-09T02:36:59.349Z,8.60
2018-05-09T02:37:59.338Z,8.80
2018-05-09T02:38:59.338Z,8.90
2018-05-09T02:39:59.348Z,7.90
2018-05-09T02:40:59.341Z,8.10
2018-05-09T02:41:59.342Z,8.10
2018-05-09T02:42:59.355Z,7.60
2018-05-09T02:43:59.353Z,7.90
2018-05-09T02:44:59.357Z,8.70
2018-05-09T02:45:59.351Z,8.90
2018-05-09T02:46:59.393Z,8.70
2018-05-09T02:47:59.412Z,7.90
2018-05-09T02:48:59.367Z,7.40
2018-05-09T02:49:59.437Z,8.20
2018-05-09T02:50:59.438Z,8.20
2018-05-09T02:51:59.372Z,8.00
2018-05-09T02:52:59.380Z,7.50
2018-05-09T02:53:59.394Z,7.90
2018-05-09T02:54:59.380Z,8.00
2018-05-09T02:55:59.379Z,8.30
2018-05-09T02:56:59.386Z,8.60
2018-05-09T02:57:59.393Z,7.60
2018-05-09T02:58:59.470Z,8.20
2018-05-09T02:59:59.424Z,8.20
2018-05-09T03:00:59.398Z,8.10
2018-05-09T03:01:59.459Z,7.90
2018-05-09T03:02:59.407Z,7.80
2018-05-09T03:03:59.427Z,7.70
2018-05-09T03:04:59.412Z,8.60
2018-05-09T03:05:59.427Z,9.10
2018-05-09T03:06:59.429Z,8.60
2018-05-09T03:07:59.451Z,8.90
2018-05-09T03:08:59.437Z,8.60
2018-05-09T03:09:59.431Z,8.20
2018-05-09T03:10:59.449Z,10.10
2018-05-09T03:11:59.433Z,9.90
2018-05-09T03:12:59.434Z,8.50
2018-05-09T03:13:59.447Z,8.70
2018-05-09T03:14:59.443Z,11.60
2018-05-09T03:15:59.448Z,8.40
2018-05-09T03:16:59.449Z,9.00
2018-05-09T03:17:59.446Z,9.80
2018-05-09T03:18:59.453Z,8.50
2018-05-09T03:19:59.468Z,9.00
2018-05-09T03:20:59.468Z,9.00
2018-05-09T03:21:59.465Z,10.00
2018-05-09T03:22:59.466Z,9.20
2018-05-09T03:23:59.554Z,9.10
2018-05-09T03:24:59.477Z,8.70
2018-05-09T03:26:00.424Z,10.90
2018-05-09T03:26:59.482Z,9.50
2018-05-09T03:27:59.497Z,9.60
2018-05-09T03:28:59.495Z,9.60
2018-05-09T03:29:59.507Z,12.40
2018-05-09T03:30:59.498Z,10.10
2018-05-09T03:31:59.506Z,9.20
2018-05-09T03:32:59.499Z,9.60
2018-05-09T03:33:59.503Z,11.00
2018-05-09T03:34:59.509Z,10.40
2018-05-09T03:35:59.512Z,10.30
2018-05-09T03:36:59.522Z,9.60
2018-05-09T03:37:59.546Z,10.70
2018-05-09T03:38:59.542Z,10.10
2018-05-09T03:39:59.518Z,9.60
2018-05-09T03:40:59.525Z,10.50
2018-05-09T03:42:00.431Z,9.00
2018-05-09T03:42:59.531Z,10.00
2018-05-09T03:43:59.541Z,10.40
2018-05-09T03:44:59.537Z,9.80
2018-05-09T03:45:59.538Z,10.30
2018-05-09T03:46:59.548Z,9.80
2018-05-09T03:47:59.552Z,10.60
2018-05-09T03:48:59.609Z,10.30
2018-05-09T03:49:59.621Z,11.00
2018-05-09T03:50:59.615Z,9.40
2018-05-09T03:51:59.557Z,9.40
2018-05-09T03:52:59.563Z,9.80
2018-05-09T03:53:59.569Z,10.20
2018-05-09T03:54:59.588Z,10.10
2018-05-09T03:55:59.581Z,10.30
2018-05-09T03:56:59.584Z,10.20
2018-05-09T03:57:59.579Z,10.60
2018-05-09T03:58:59.580Z,10.70
2018-05-09T03:59:59.593Z,10.30
2018-05-09T04:00:59.583Z,10.70
2018-05-09T04:01:59.596Z,10.00
2018-05-09T04:02:59.600Z,10.50
2018-05-09T04:03:59.598Z,10.20
2018-05-09T04:04:59.605Z,10.50
2018-05-09T04:05:59.600Z,10.40
2018-05-09T04:06:59.612Z,10.00
2018-05-09T04:07:59.620Z,10.30
2018-05-09T04:08:59.630Z,10.30
2018-05-09T04:09:59.614Z,10.50
2018-05-09T04:10:59.624Z,10.30
2018-05-09T04:11:59.625Z,10.50
2018-05-09T04:12:59.632Z,10.90
2018-05-09T04:13:59.628Z,10.90
2018-05-09T04:14:59.641Z,10.60
2018-05-09T04:15:59.642Z,10.50
2018-05-09T04:16:59.633Z,10.50
2018-05-09T04:18:00.439Z,11.40
2018-05-09T04:18:59.635Z,10.60
2018-05-09T04:19:59.673Z,11.20
2018-05-09T04:20:59.668Z,10.40
2018-05-09T04:21:59.651Z,12.30
2018-05-09T04:22:59.658Z,14.30
2018-05-09T04:23:59.664Z,10.80
2018-05-09T04:24:59.661Z,11.50
2018-05-09T04:25:59.665Z,11.30
2018-05-09T04:26:59.667Z,10.80
2018-05-09T04:27:59.690Z,11.20
2018-05-09T04:28:59.674Z,12.60
2018-05-09T04:29:59.692Z,12.00
2018-05-09T04:30:59.694Z,13.60
2018-05-09T04:31:59.691Z,11.50
2018-05-09T04:32:59.723Z,11.30
2018-05-09T04:33:59.691Z,10.60
2018-05-09T04:34:59.699Z,12.30
2018-05-09T04:35:59.712Z,10.70
2018-05-09T04:36:59.709Z,14.10
2018-05-09T04:37:59.710Z,11.40
2018-05-09T04:38:59.732Z,11.80
2018-05-09T04:39:59.725Z,12.50
2018-05-09T04:40:59.720Z,10.80
2018-05-09T04:41:59.773Z,11.30
2018-05-09T04:42:59.720Z,11.90
2018-05-09T04:43:59.717Z,13.20
2018-05-09T04:44:59.725Z,11.20
2018-05-09T04:45:59.738Z,11.10
2018-05-09T04:46:59.740Z,10.50
2018-05-09T04:47:59.741Z,11.60
2018-05-09T04:48:59.751Z,15.90
2018-05-09T04:49:59.751Z,11.10
2018-05-09T04:50:59.748Z,11.70
2018-05-09T04:51:59.743Z,11.40
2018-05-09T04:52:59.749Z,12.60
2018-05-09T04:53:59.751Z,11.60
2018-05-09T04:54:59.829Z,11.00
2018-05-09T04:56:00.455Z,12.00
2018-05-09T04:56:59.779Z,11.20
2018-05-09T04:57:59.767Z,13.10
2018-05-09T04:58:59.781Z,11.50
2018-05-09T04:59:59.788Z,12.20
2018-05-09T05:00:59.778Z,11.70
2018-05-09T05:01:59.782Z,12.00
2018-05-09T05:02:59.785Z,12.90
2018-05-09T05:03:59.782Z,12.40
2018-05-09T05:04:59.796Z,12.00
2018-05-09T05:05:59.799Z,11.80
2018-05-09T05:06:59.896Z,11.50
2018-05-09T05:07:59.805Z,11.90
2018-05-09T05:08:59.803Z,11.70
2018-05-09T05:09:59.805Z,12.40
2018-05-09T05:10:59.802Z,11.10
2018-05-09T05:11:59.811Z,11.90
2018-05-09T05:12:59.829Z,10.90
2018-05-09T05:13:59.825Z,11.20
2018-05-09T05:14:59.822Z,12.00
2018-05-09T05:15:59.819Z,11.80
2018-05-09T05:16:59.832Z,13.00
2018-05-09T05:17:59.828Z,16.80
2018-05-09T05:18:59.959Z,15.60
2018-05-09T05:19:59.842Z,12.30
2018-05-09T05:20:59.838Z,11.60
2018-05-09T05:21:59.840Z,11.70
2018-05-09T05:22:59.847Z,10.60
2018-05-09T05:24:00.484Z,11.80
2018-05-09T05:24:59.852Z,12.40
2018-05-09T05:25:59.853Z,12.00
2018-05-09T05:26:59.880Z,12.00
2018-05-09T05:27:59.864Z,11.10
2018-05-09T05:28:59.895Z,12.20
2018-05-09T05:29:59.871Z,11.00
2018-05-09T05:30:59.880Z,10.80
2018-05-09T05:31:59.894Z,11.10
2018-05-09T05:32:59.898Z,10.80
2018-05-09T05:33:59.903Z,11.30
2018-05-09T05:34:59.879Z,13.40
2018-05-09T05:35:59.887Z,11.30
2018-05-09T05:36:59.920Z,10.80
2018-05-09T05:37:59.908Z,13.70
2018-05-09T05:38:59.903Z,10.60
2018-05-09T05:39:59.983Z,12.70
2018-05-09T05:40:59.916Z,10.40
2018-05-09T05:41:59.916Z,10.70
2018-05-09T05:42:59.918Z,11.40
2018-05-09T05:43:59.920Z,11.70
2018-05-09T05:45:00.026Z,17.00
2018-05-09T05:45:59.948Z,14.50
2018-05-09T05:46:59.919Z,14.10
2018-05-09T05:47:59.928Z,11.60
2018-05-09T05:49:00.033Z,11.60
2018-05-09T05:49:59.939Z,11.60
2018-05-09T05:50:59.949Z,12.40
2018-05-09T05:51:59.979Z,11.40
2018-05-09T05:53:00.062Z,12.10
2018-05-09T05:53:59.959Z,15.50
2018-05-09T05:54:59.970Z,13.60
2018-05-09T05:56:00.040Z,13.30
2018-05-09T05:56:59.967Z,11.70
2018-05-09T05:57:59.995Z,12.40
2018-05-09T05:59:00.288Z,10.90
2018-05-09T06:00:00.415Z,12.70
2018-05-09T06:01:00.018Z,12.40
2018-05-09T06:02:00.028Z,11.80
2018-05-09T06:02:59.999Z,11.50
2018-05-09T06:04:00.009Z,10.60
2018-05-09T06:05:00.032Z,10.20
2018-05-09T06:06:00.013Z,11.30
2018-05-09T06:07:00.034Z,11.50
2018-05-09T06:08:00.032Z,12.60
2018-05-09T06:09:00.041Z,10.60
2018-05-09T06:10:00.045Z,12.30
2018-05-09T06:11:00.114Z,12.30
2018-05-09T06:12:00.074Z,12.00
2018-05-09T06:13:00.077Z,10.00
2018-05-09T06:14:00.066Z,16.60
2018-05-09T06:15:00.071Z,15.20
2018-05-09T06:16:00.100Z,15.70
2018-05-09T06:17:00.090Z,10.30
2018-05-09T06:18:00.121Z,9.80
2018-05-09T06:19:00.110Z,10.90
2018-05-09T06:20:00.111Z,9.30
2018-05-09T06:21:00.133Z,13.20
2018-05-09T06:22:00.215Z,9.60
2018-05-09T06:23:00.170Z,9.90
2018-05-09T06:24:00.189Z,9.20
2018-05-09T06:25:00.175Z,9.00
2018-05-09T06:26:00.174Z,9.00
2018-05-09T06:27:00.183Z,9.40
2018-05-09T06:28:00.199Z,10.60
2018-05-09T06:29:00.198Z,14.20
2018-05-09T06:30:00.294Z,13.90
2018-05-09T06:31:00.222Z,10.00
2018-05-09T06:32:00.227Z,12.20
2018-05-09T06:33:00.261Z,13.90
2018-05-09T06:34:00.265Z,13.50
2018-05-09T06:35:00.265Z,13.70
2018-05-09T06:36:00.276Z,13.70
2018-05-09T06:37:00.302Z,14.10
2018-05-09T06:38:00.304Z,19.00
2018-05-09T06:39:00.306Z,17.00
2018-05-09T06:40:00.353Z,14.00
2018-05-09T06:41:00.328Z,13.10
2018-05-09T06:42:00.323Z,15.30
2018-05-09T06:43:00.348Z,20.70
2018-05-09T06:44:00.452Z,20.40
2018-05-09T06:45:01.007Z,30.50
2018-05-09T06:46:00.371Z,14.10
2018-05-09T06:47:00.382Z,17.40
2018-05-09T06:48:00.406Z,19.50
2018-05-09T06:49:00.415Z,18.40
2018-05-09T06:50:00.446Z,12.10
2018-05-09T06:51:00.481Z,15.90
2018-05-09T06:52:00.437Z,12.00
2018-05-09T06:53:00.439Z,10.50
2018-05-09T06:54:00.480Z,9.80
2018-05-09T06:55:00.484Z,9.70
2018-05-09T06:56:00.486Z,10.90
2018-05-09T06:57:00.496Z,15.90
2018-05-09T06:58:00.509Z,12.70
2018-05-09T06:59:00.729Z,13.70
2018-05-09T07:00:00.686Z,9.90
2018-05-09T07:01:00.568Z,12.70
2018-05-09T07:02:00.582Z,13.30
2018-05-09T07:03:00.571Z,10.40
2018-05-09T07:04:00.587Z,10.60
2018-05-09T07:05:00.596Z,10.70
2018-05-09T07:06:00.612Z,10.90
2018-05-09T07:07:00.635Z,13.70
2018-05-09T07:08:00.652Z,9.00
2018-05-09T07:09:01.525Z,9.40
2018-05-09T07:10:00.658Z,10.20
2018-05-09T07:11:00.672Z,13.60
2018-05-09T07:12:00.680Z,12.40
2018-05-09T07:13:01.529Z,7.10
2018-05-09T07:14:00.743Z,10.70
2018-05-09T07:15:00.748Z,11.20
2018-05-09T07:16:00.758Z,8.90
2018-05-09T07:17:00.766Z,11.90
2018-05-09T07:18:00.763Z,11.00
2018-05-09T07:19:00.907Z,10.90
2018-05-09T07:20:01.531Z,8.40
2018-05-09T07:21:00.822Z,28.30
2018-05-09T07:22:00.831Z,8.10
2018-05-09T07:23:01.554Z,9.60
2018-05-09T07:24:00.907Z,12.80
2018-05-09T07:25:00.868Z,10.40
2018-05-09T07:26:00.869Z,12.50
2018-05-09T07:27:00.904Z,8.90
2018-05-09T07:28:00.942Z,8.00
2018-05-09T07:29:00.952Z,9.30
2018-05-09T07:30:00.946Z,7.90
2018-05-09T07:31:00.978Z,10.50
2018-05-09T07:32:01.034Z,8.60
2018-05-09T07:33:00.998Z,8.40
2018-05-09T07:34:01.534Z,10.00
2018-05-09T07:35:01.016Z,6.80
2018-05-09T07:36:01.027Z,7.30
2018-05-09T07:37:01.103Z,9.30
2018-05-09T07:38:01.167Z,9.40
2018-05-09T07:39:01.120Z,9.40
2018-05-09T07:40:01.088Z,9.50
2018-05-09T07:41:01.428Z,10.10
2018-05-09T07:42:01.141Z,10.40
2018-05-09T07:43:01.139Z,8.50
2018-05-09T07:44:01.149Z,8.80
2018-05-09T07:45:01.201Z,8.00
2018-05-09T07:46:01.187Z,9.80
2018-05-09T07:47:01.385Z,7.20
2018-05-09T07:48:01.490Z,8.70
2018-05-09T07:49:01.267Z,9.70
2018-05-09T07:50:01.252Z,11.10
2018-05-09T07:51:01.271Z,9.80
2018-05-09T07:52:01.270Z,9.60
2018-05-09T07:53:02.057Z,10.00
2018-05-09T07:54:01.323Z,10.70
2018-05-09T07:55:01.341Z,9.10
2018-05-09T07:56:01.362Z,8.10
2018-05-09T07:57:01.480Z,9.60
2018-05-09T07:58:01.374Z,8.70
2018-05-09T07:59:01.392Z,9.40
2018-05-09T08:00:01.637Z,8.30
2018-05-09T08:01:01.431Z,8.30
2018-05-09T08:02:01.512Z,7.50
2018-05-09T08:03:01.463Z,10.10
2018-05-09T08:04:01.476Z,10.20
2018-05-09T08:05:01.481Z,7.90
2018-05-09T08:06:01.528Z,10.50
2018-05-09T08:07:01.532Z,10.40
2018-05-09T08:08:01.531Z,9.50
2018-05-09T08:09:01.561Z,8.20
2018-05-09T08:10:01.617Z,8.30
2018-05-09T08:11:01.597Z,7.30
2018-05-09T08:12:01.613Z,9.40
2018-05-09T08:13:01.663Z,8.50
2018-05-09T08:14:01.650Z,7.30
2018-05-09T08:15:01.783Z,9.30
2018-05-09T08:16:01.696Z,9.70
2018-05-09T08:17:01.718Z,9.40
2018-05-09T08:18:02.569Z,10.00
2018-05-09T08:19:01.741Z,7.80
2018-05-09T08:20:01.765Z,8.00
2018-05-09T08:21:01.761Z,8.80
2018-05-09T08:22:01.769Z,10.30
2018-05-09T08:23:01.832Z,9.60
2018-05-09T08:24:01.868Z,8.90
2018-05-09T08:25:01.843Z,8.40
2018-05-09T08:26:01.855Z,8.80
2018-05-09T08:27:02.031Z,11.60
2018-05-09T08:28:02.041Z,8.20
2018-05-09T08:29:01.930Z,12.30
2018-05-09T08:30:01.952Z,7.40
2018-05-09T08:31:01.977Z,11.50
2018-05-09T08:32:02.138Z,7.80
2018-05-09T08:33:02.037Z,8.60
2018-05-09T08:34:02.155Z,9.80
2018-05-09T08:35:02.155Z,7.70
2018-05-09T08:36:02.038Z,8.10
2018-05-09T08:37:02.065Z,9.80
2018-05-09T08:38:02.078Z,7.20
2018-05-09T08:39:02.116Z,9.30
2018-05-09T08:40:02.137Z,7.50
2018-05-09T08:41:02.141Z,10.10
2018-05-09T08:42:02.175Z,8.00
2018-05-09T08:43:02.206Z,10.90
2018-05-09T08:44:02.245Z,9.40
2018-05-09T08:45:03.087Z,7.70
2018-05-09T08:46:02.273Z,6.40
2018-05-09T08:47:02.291Z,9.00
2018-05-09T08:48:02.297Z,7.80
2018-05-09T08:49:02.312Z,9.80
2018-05-09T08:50:02.328Z,11.60
2018-05-09T08:51:02.356Z,8.00
2018-05-09T08:52:02.364Z,11.50
2018-05-09T08:53:02.432Z,8.60
2018-05-09T08:54:02.419Z,9.80
2018-05-09T08:55:02.457Z,8.00
2018-05-09T08:56:02.483Z,8.10
2018-05-09T08:57:02.476Z,8.60
2018-05-09T08:58:02.482Z,7.30
2018-05-09T08:59:02.563Z,8.10
2018-05-09T09:00:02.531Z,8.20
2018-05-09T09:01:02.577Z,8.50
2018-05-09T09:02:02.568Z,6.60
2018-05-09T09:03:02.596Z,9.80
2018-05-09T09:04:02.610Z,7.50
2018-05-09T09:05:02.626Z,5.90
2018-05-09T09:06:02.662Z,9.30
2018-05-09T09:07:03.603Z,6.80
2018-05-09T09:08:02.787Z,5.90
2018-05-09T09:09:02.711Z,6.90
2018-05-09T09:10:04.461Z,6.30
2018-05-09T09:11:02.754Z,5.60
2018-05-09T09:12:02.802Z,7.40
2018-05-09T09:13:02.793Z,6.80
2018-05-09T09:14:02.877Z,7.00
2018-05-09T09:15:02.890Z,6.70
2018-05-09T09:16:02.902Z,4.60
2018-05-09T09:17:02.893Z,7.00
2018-05-09T09:18:02.908Z,6.40
2018-05-09T09:19:02.930Z,7.00
2018-05-09T09:20:02.952Z,5.20
2018-05-09T09:21:02.968Z,6.10
2018-05-09T09:22:03.045Z,6.00
2018-05-09T09:23:03.053Z,7.00
2018-05-09T09:24:03.030Z,6.90
2018-05-09T09:25:03.056Z,6.00
2018-05-09T09:26:03.611Z,6.30
2018-05-09T09:27:03.159Z,6.50
2018-05-09T09:28:03.129Z,8.00
2018-05-09T09:29:03.142Z,10.60
2018-05-09T09:30:03.176Z,4.80
2018-05-09T09:31:03.188Z,6.00
2018-05-09T09:32:03.224Z,7.00
2018-05-09T09:33:03.245Z,6.70
2018-05-09T09:34:03.400Z,6.20
2018-05-09T09:35:03.293Z,6.00
2018-05-09T09:36:03.364Z,5.80
2018-05-09T09:37:03.337Z,6.30
2018-05-09T09:38:03.367Z,5.60
2018-05-09T09:39:03.387Z,7.00
2018-05-09T09:40:03.414Z,6.80
2018-05-09T09:41:03.455Z,6.50
2018-05-09T09:42:03.452Z,6.50
2018-05-09T09:43:03.476Z,4.80
2018-05-09T09:44:03.495Z,5.90
2018-05-09T09:45:04.207Z,5.70
2018-05-09T09:46:04.306Z,6.30
2018-05-09T09:47:03.595Z,5.80
2018-05-09T09:48:03.600Z,3.80
2018-05-09T09:49:03.626Z,3.90
2018-05-09T09:50:03.636Z,5.00
2018-05-09T09:51:03.675Z,6.40
2018-05-09T09:52:03.764Z,4.70
2018-05-09T09:53:03.733Z,7.80
2018-05-09T09:54:03.738Z,5.30
2018-05-09T09:55:03.776Z,5.00
2018-05-09T09:56:03.791Z,4.50
2018-05-09T09:57:03.814Z,4.40
2018-05-09T09:58:03.835Z,6.10
2018-05-09T09:59:03.926Z,5.70
2018-05-09T10:00:03.920Z,6.40
2018-05-09T10:01:04.121Z,5.50
2018-05-09T10:02:04.248Z,5.60
2018-05-09T10:03:04.065Z,4.90
2018-05-09T10:04:04.083Z,6.50
2018-05-09T10:05:04.022Z,4.50
2018-05-09T10:06:04.036Z,4.80
2018-05-09T10:07:04.142Z,7.80
2018-05-09T10:08:04.149Z,6.50
2018-05-09T10:09:04.124Z,5.30
2018-05-09T10:10:04.146Z,6.00
2018-05-09T10:11:04.167Z,6.40
2018-05-09T10:12:04.190Z,5.50
2018-05-09T10:13:04.474Z,6.70
2018-05-09T10:14:04.244Z,5.00
2018-05-09T10:15:04.265Z,5.80
2018-05-09T10:16:04.398Z,8.30
2018-05-09T10:17:04.311Z,5.70
2018-05-09T10:18:04.358Z,5.00
2018-05-09T10:19:04.361Z,6.00
2018-05-09T10:20:04.418Z,6.00
2018-05-09T10:21:04.429Z,6.60
2018-05-09T10:22:04.463Z,5.80
2018-05-09T10:23:04.469Z,15.40
2018-05-09T10:24:04.492Z,7.70
2018-05-09T10:25:04.520Z,6.10
2018-05-09T10:26:04.570Z,4.90
2018-05-09T10:27:04.584Z,5.90
2018-05-09T10:28:04.592Z,5.10
2018-05-09T10:29:04.623Z,7.20
2018-05-09T10:30:04.645Z,6.40
2018-05-09T10:31:04.666Z,4.90
2018-05-09T10:32:04.700Z,6.40
2018-05-09T10:33:04.725Z,5.90
2018-05-09T10:34:04.736Z,6.00
2018-05-09T10:35:04.883Z,7.20
2018-05-09T10:36:04.781Z,7.50
2018-05-09T10:37:04.816Z,7.30
2018-05-09T10:38:04.830Z,7.40
2018-05-09T10:39:04.882Z,5.80
2018-05-09T10:40:04.880Z,5.50
2018-05-09T10:41:04.907Z,6.00
2018-05-09T10:42:04.936Z,6.50
2018-05-09T10:43:04.954Z,7.30
2018-05-09T10:44:04.972Z,6.30
2018-05-09T10:45:05.090Z,5.20
2018-05-09T10:46:05.039Z,5.30
2018-05-09T10:47:05.060Z,5.40
2018-05-09T10:48:05.062Z,4.80
2018-05-09T10:49:05.083Z,5.60
2018-05-09T10:50:05.111Z,4.80
2018-05-09T10:51:05.124Z,6.20
2018-05-09T10:52:05.662Z,5.00
2018-05-09T10:53:05.173Z,4.80
2018-05-09T10:54:05.185Z,5.20
2018-05-09T10:55:05.282Z,8.00
2018-05-09T10:56:05.232Z,6.50
2018-05-09T10:57:05.244Z,5.80
2018-05-09T10:58:05.264Z,5.20
2018-05-09T10:59:05.284Z,6.00
2018-05-09T11:00:05.305Z,6.60
2018-05-09T11:01:05.326Z,7.20
2018-05-09T11:02:05.334Z,7.40
2018-05-09T11:03:05.353Z,6.30
2018-05-09T11:04:05.363Z,7.10
2018-05-09T11:05:05.464Z,6.00
2018-05-09T11:06:05.425Z,5.90
2018-05-09T11:07:05.427Z,6.20
2018-05-09T11:08:05.458Z,6.60
2018-05-09T11:09:05.463Z,8.90
2018-05-09T11:10:05.492Z,5.70
2018-05-09T11:11:05.485Z,7.60
2018-05-09T11:12:05.497Z,7.50
2018-05-09T11:13:05.518Z,8.00
2018-05-09T11:14:05.548Z,8.50
2018-05-09T11:15:05.669Z,7.70
2018-05-09T11:16:05.561Z,6.80
2018-05-09T11:17:05.574Z,5.70
2018-05-09T11:18:05.566Z,6.40
2018-05-09T11:19:05.583Z,7.60
2018-05-09T11:20:05.627Z,8.20
2018-05-09T11:21:05.628Z,6.20
2018-05-09T11:22:05.632Z,6.50
2018-05-09T11:23:05.665Z,5.70
2018-05-09T11:24:05.657Z,6.80
2018-05-09T11:25:05.668Z,8.90
2018-05-09T11:26:05.693Z,9.20
2018-05-09T11:27:06.043Z,6.80
2018-05-09T11:28:20.391Z,8.30
2018-05-09T11:29:05.748Z,5.40
2018-05-09T11:30:05.838Z,7.40
2018-05-09T11:31:05.833Z,8.00
2018-05-09T11:32:05.779Z,7.40
2018-05-09T11:33:05.802Z,9.70
2018-05-09T11:34:05.781Z,6.80
2018-05-09T11:35:05.998Z,6.80
2018-05-09T11:36:05.854Z,7.70
2018-05-09T11:37:05.985Z,8.40
2018-05-09T11:38:05.906Z,9.80
2018-05-09T11:39:05.890Z,8.50
2018-05-09T11:40:05.893Z,7.80
2018-05-09T11:41:05.860Z,6.50
2018-05-09T11:42:05.885Z,7.30
2018-05-09T11:43:05.954Z,5.60
2018-05-09T11:44:06.025Z,5.90
2018-05-09T11:45:05.919Z,6.60
2018-05-09T11:46:06.708Z,7.60
2018-05-09T11:47:05.932Z,5.40
2018-05-09T11:48:06.035Z,5.80
2018-05-09T11:49:05.966Z,9.30
2018-05-09T11:50:06.003Z,5.30
2018-05-09T11:51:06.000Z,9.30
2018-05-09T11:52:05.979Z,6.90
2018-05-09T11:53:06.096Z,6.60
2018-05-09T11:54:06.054Z,6.40
2018-05-09T11:55:06.015Z,8.50
2018-05-09T11:56:06.045Z,7.00
2018-05-09T11:57:06.068Z,6.80
2018-05-09T11:58:06.071Z,6.90
2018-05-09T11:59:06.109Z,7.50
2018-05-09T12:00:06.222Z,7.70
2018-05-09T12:01:06.127Z,6.80
2018-05-09T12:02:06.120Z,6.00
2018-05-09T12:03:06.126Z,6.40
2018-05-09T12:04:06.124Z,6.90
2018-05-09T12:05:06.151Z,6.90
2018-05-09T12:06:06.161Z,8.00
2018-05-09T12:07:06.170Z,7.30
2018-05-09T12:08:06.321Z,7.20
2018-05-09T12:09:06.173Z,6.90
2018-05-09T12:10:06.178Z,14.40
2018-05-09T12:11:06.186Z,7.70
2018-05-09T12:12:06.237Z,7.60
2018-05-09T12:13:06.333Z,6.80
2018-05-09T12:14:06.220Z,6.40
2018-05-09T12:15:06.223Z,7.10
2018-05-09T12:16:06.238Z,6.40
2018-05-09T12:17:06.240Z,7.80
2018-05-09T12:18:07.209Z,8.00
2018-05-09T12:19:06.258Z,7.10
2018-05-09T12:20:06.270Z,7.80
2018-05-09T12:21:06.295Z,6.20
2018-05-09T12:22:06.302Z,7.20
2018-05-09T12:23:06.320Z,8.10
2018-05-09T12:24:06.329Z,7.70
2018-05-09T12:25:06.333Z,6.80
2018-05-09T12:26:07.214Z,10.80
2018-05-09T12:27:07.336Z,6.10
2018-05-09T12:28:06.398Z,7.60
2018-05-09T12:29:06.414Z,7.60
2018-05-09T12:30:06.409Z,8.30
2018-05-09T12:31:06.411Z,5.20
2018-05-09T12:32:06.414Z,5.60
2018-05-09T12:33:06.648Z,7.60
2018-05-09T12:34:06.466Z,8.10
2018-05-09T12:35:06.436Z,6.90
2018-05-09T12:36:06.470Z,5.60
2018-05-09T12:37:06.468Z,7.40
2018-05-09T12:38:06.592Z,6.20
2018-05-09T12:39:06.511Z,7.90
2018-05-09T12:40:06.499Z,7.80
2018-05-09T12:41:06.498Z,8.30
2018-05-09T12:42:07.219Z,8.40
2018-05-09T12:43:06.510Z,5.40
2018-05-09T12:44:06.519Z,8.50
2018-05-09T12:45:06.550Z,8.20
2018-05-09T12:46:06.561Z,6.70
2018-05-09T12:47:06.582Z,7.40
2018-05-09T12:48:07.227Z,9.90
2018-05-09T12:49:06.564Z,6.90
2018-05-09T12:50:06.652Z,10.30
2018-05-09T12:51:06.602Z,5.90
2018-05-09T12:52:06.619Z,8.60
2018-05-09T12:53:06.605Z,7.70
2018-05-09T12:54:06.626Z,8.10
2018-05-09T12:55:06.619Z,12.60
2018-05-09T12:56:06.631Z,9.00
2018-05-09T12:57:06.638Z,9.10
2018-05-09T12:58:06.705Z,12.50
2018-05-09T12:59:06.660Z,10.10
2018-05-09T13:00:06.678Z,10.30
2018-05-09T13:01:06.688Z,11.90
2018-05-09T13:02:06.700Z,11.00
2018-05-09T13:03:06.702Z,7.20
2018-05-09T13:04:06.727Z,8.70
2018-05-09T13:05:06.724Z,10.40
2018-05-09T13:06:06.753Z,13.80
2018-05-09T13:07:06.757Z,10.10
2018-05-09T13:08:06.822Z,8.70
2018-05-09T13:09:06.759Z,9.70
2018-05-09T13:10:06.793Z,12.40
2018-05-09T13:11:06.788Z,11.20